sensor_id;sensor_type;location;lat;lon;timestamp;temperature;humidity
66094;DHT22;52876;49.394;10.892;2023-01-16T00:00:01;1.20;99.90
66094;DHT22;52876;49.394;10.892;2023-01-16T00:02:28;1.20;99.90
66094;DHT22;52876;49.394;10.892;2023-01-16T00:04:54;1.20;99.90
66094;DHT22;52876;49.394;10.892;2023-01-16T00:07:19;1.20;99.90
66094;DHT22;52876;49.394;10.892;2023-01-16T00:09:45;1.30;99.90
66094;DHT22;52876;49.394;10.892;2023-01-16T00:12:12;1.20;99.90
66094;DHT22;52876;49.394;10.892;2023-01-16T00:14:38;1.30;99.90
66094;DHT22;52876;49.394;10.892;2023-01-16T00:17:05;1.30;99.90
66094;DHT22;52876;49.394;10.892;2023-01-16T00:19:31;1.20;99.90
66094;DHT22;52876;49.394;10.892;2023-01-16T00:21:56;1.20;99.90
66094;DHT22;52876;49.394;10.892;2023-01-16T00:26:50;1.20;99.90
66094;DHT22;52876;49.394;10.892;2023-01-16T00:29:17;1.20;99.90
66094;DHT22;52876;49.394;10.892;2023-01-16T00:31:45;1.20;99.90
66094;DHT22;52876;49.394;10.892;2023-01-16T00:34:10;1.20;99.90
66094;DHT22;52876;49.394;10.892;2023-01-16T00:36:37;1.30;99.90
66094;DHT22;52876;49.394;10.892;2023-01-16T00:39:03;1.20;99.90
66094;DHT22;52876;49.394;10.892;2023-01-16T00:41:29;1.20;99.90
66094;DHT22;52876;49.394;10.892;2023-01-16T00:43:55;1.20;99.90
66094;DHT22;52876;49.394;10.892;2023-01-16T00:46:22;1.10;99.90
66094;DHT22;52876;49.394;10.892;2023-01-16T00:48:47;1.10;99.90
66094;DHT22;52876;49.394;10.892;2023-01-16T00:51:14;1.10;99.90
66094;DHT22;52876;49.394;10.892;2023-01-16T00:53:40;1.10;99.90
66094;DHT22;52876;49.394;10.892;2023-01-16T00:56:07;1.00;99.90
66094;DHT22;52876;49.394;10.892;2023-01-16T00:58:33;1.10;99.90
66094;DHT22;52876;49.394;10.892;2023-01-16T01:00:59;1.10;99.90
66094;DHT22;52876;49.394;10.892;2023-01-16T01:03:26;1.00;99.90
66094;DHT22;52876;49.394;10.892;2023-01-16T01:05:52;1.10;99.90
66094;DHT22;52876;49.394;10.892;2023-01-16T01:08:18;1.10;99.90
66094;DHT22;52876;49.394;10.892;2023-01-16T01:10:45;1.00;99.90
66094;DHT22;52876;49.394;10.892;2023-01-16T01:13:12;1.10;99.90
66094;DHT22;52876;49.394;10.892;2023-01-16T01:15:39;1.10;99.90
66094;DHT22;52876;49.394;10.892;2023-01-16T01:18:05;1.10;99.90
66094;DHT22;52876;49.394;10.892;2023-01-16T01:20:33;1.20;99.90
66094;DHT22;52876;49.394;10.892;2023-01-16T01:22:59;1.20;99.90
66094;DHT22;52876;49.394;10.892;2023-01-16T01:25:26;1.20;99.90
66094;DHT22;52876;49.394;10.892;2023-01-16T01:27:52;1.30;99.90
66094;DHT22;52876;49.394;10.892;2023-01-16T01:30:17;1.50;99.90
66094;DHT22;52876;49.394;10.892;2023-01-16T01:32:45;1.50;99.90
66094;DHT22;52876;49.394;10.892;2023-01-16T01:35:10;1.50;99.90
66094;DHT22;52876;49.394;10.892;2023-01-16T01:37:39;1.50;99.90
66094;DHT22;52876;49.394;10.892;2023-01-16T01:40:06;1.60;99.90
66094;DHT22;52876;49.394;10.892;2023-01-16T01:42:37;1.60;99.90
66094;DHT22;52876;49.394;10.892;2023-01-16T01:45:13;1.60;99.90
66094;DHT22;52876;49.394;10.892;2023-01-16T01:47:44;1.60;99.90
66094;DHT22;52876;49.394;10.892;2023-01-16T01:50:15;1.50;99.90
66094;DHT22;52876;49.394;10.892;2023-01-16T01:52:46;1.50;99.90
66094;DHT22;52876;49.394;10.892;2023-01-16T01:55:13;1.50;99.90
66094;DHT22;52876;49.394;10.892;2023-01-16T01:57:43;1.50;99.90
66094;DHT22;52876;49.394;10.892;2023-01-16T02:00:14;1.50;99.90
66094;DHT22;52876;49.394;10.892;2023-01-16T02:02:46;1.50;99.90
66094;DHT22;52876;49.394;10.892;2023-01-16T02:05:15;1.50;99.90
66094;DHT22;52876;49.394;10.892;2023-01-16T02:07:47;1.50;99.90
66094;DHT22;52876;49.394;10.892;2023-01-16T02:10:18;1.50;99.90
66094;DHT22;52876;49.394;10.892;2023-01-16T02:12:47;1.60;99.90
66094;DHT22;52876;49.394;10.892;2023-01-16T02:15:13;1.60;99.90
66094;DHT22;52876;49.394;10.892;2023-01-16T02:17:44;1.60;99.90
66094;DHT22;52876;49.394;10.892;2023-01-16T02:20:19;1.70;99.90
66094;DHT22;52876;49.394;10.892;2023-01-16T02:23:43;1.70;99.90
66094;DHT22;52876;49.394;10.892;2023-01-16T02:26:54;1.70;99.90
66094;DHT22;52876;49.394;10.892;2023-01-16T02:29:43;1.70;99.90
66094;DHT22;52876;49.394;10.892;2023-01-16T02:32:25;1.70;99.90
66094;DHT22;52876;49.394;10.892;2023-01-16T02:35:11;1.70;99.90
66094;DHT22;52876;49.394;10.892;2023-01-16T02:37:45;1.70;99.90
66094;DHT22;52876;49.394;10.892;2023-01-16T02:40:33;1.60;99.90
66094;DHT22;52876;49.394;10.892;2023-01-16T02:43:09;1.60;99.90
66094;DHT22;52876;49.394;10.892;2023-01-16T02:45:42;1.50;99.90
66094;DHT22;52876;49.394;10.892;2023-01-16T02:48:13;1.50;99.90
66094;DHT22;52876;49.394;10.892;2023-01-16T02:50:50;1.40;99.90
66094;DHT22;52876;49.394;10.892;2023-01-16T02:53:21;1.40;99.90
66094;DHT22;52876;49.394;10.892;2023-01-16T02:55:48;1.30;99.90
66094;DHT22;52876;49.394;10.892;2023-01-16T02:58:16;1.30;99.90
66094;DHT22;52876;49.394;10.892;2023-01-16T03:00:49;1.20;99.90
66094;DHT22;52876;49.394;10.892;2023-01-16T03:03:34;1.20;99.90
66094;DHT22;52876;49.394;10.892;2023-01-16T03:06:06;1.10;99.90
66094;DHT22;52876;49.394;10.892;2023-01-16T03:08:42;1.10;99.90
66094;DHT22;52876;49.394;10.892;2023-01-16T03:11:16;1.00;99.90
66094;DHT22;52876;49.394;10.892;2023-01-16T03:14:02;1.00;99.90
66094;DHT22;52876;49.394;10.892;2023-01-16T03:16:37;0.90;99.90
66094;DHT22;52876;49.394;10.892;2023-01-16T03:19:19;0.90;99.90
66094;DHT22;52876;49.394;10.892;2023-01-16T03:22:02;1.00;99.90
66094;DHT22;52876;49.394;10.892;2023-01-16T03:24:36;1.00;99.90
66094;DHT22;52876;49.394;10.892;2023-01-16T03:27:23;1.00;99.90
66094;DHT22;52876;49.394;10.892;2023-01-16T03:29:56;0.90;99.90
66094;DHT22;52876;49.394;10.892;2023-01-16T03:32:29;0.90;99.90
66094;DHT22;52876;49.394;10.892;2023-01-16T03:35:01;0.80;99.90
66094;DHT22;52876;49.394;10.892;2023-01-16T03:37:33;0.80;99.90
66094;DHT22;52876;49.394;10.892;2023-01-16T03:40:01;0.70;99.90
66094;DHT22;52876;49.394;10.892;2023-01-16T03:42:33;0.60;99.90
66094;DHT22;52876;49.394;10.892;2023-01-16T03:45:06;0.60;99.90
66094;DHT22;52876;49.394;10.892;2023-01-16T03:47:39;0.60;99.90
66094;DHT22;52876;49.394;10.892;2023-01-16T03:50:09;0.60;99.90
66094;DHT22;52876;49.394;10.892;2023-01-16T03:52:40;0.60;99.90
66094;DHT22;52876;49.394;10.892;2023-01-16T03:55:13;0.60;99.90
66094;DHT22;52876;49.394;10.892;2023-01-16T03:57:45;0.50;99.90
66094;DHT22;52876;49.394;10.892;2023-01-16T04:00:13;0.50;99.90
66094;DHT22;52876;49.394;10.892;2023-01-16T04:02:44;0.50;99.90
66094;DHT22;52876;49.394;10.892;2023-01-16T04:05:15;0.50;99.90
66094;DHT22;52876;49.394;10.892;2023-01-16T04:07:45;0.50;99.90
66094;DHT22;52876;49.394;10.892;2023-01-16T04:10:16;0.40;99.90
66094;DHT22;52876;49.394;10.892;2023-01-16T04:12:48;0.40;99.90
66094;DHT22;52876;49.394;10.892;2023-01-16T04:15:17;0.30;99.90
66094;DHT22;52876;49.394;10.892;2023-01-16T04:17:45;0.30;99.90
66094;DHT22;52876;49.394;10.892;2023-01-16T04:20:13;0.30;99.90
66094;DHT22;52876;49.394;10.892;2023-01-16T04:22:41;0.30;99.90
66094;DHT22;52876;49.394;10.892;2023-01-16T04:25:12;0.30;99.90
66094;DHT22;52876;49.394;10.892;2023-01-16T04:27:39;0.20;99.90
66094;DHT22;52876;49.394;10.892;2023-01-16T04:30:06;0.20;99.90
66094;DHT22;52876;49.394;10.892;2023-01-16T04:32:33;0.20;99.90
66094;DHT22;52876;49.394;10.892;2023-01-16T04:34:59;0.10;99.90
66094;DHT22;52876;49.394;10.892;2023-01-16T04:37:28;0.10;99.90
66094;DHT22;52876;49.394;10.892;2023-01-16T04:39:53;0.10;99.90
66094;DHT22;52876;49.394;10.892;2023-01-16T04:42:20;0.00;99.90
66094;DHT22;52876;49.394;10.892;2023-01-16T04:44:46;0.00;99.90
66094;DHT22;52876;49.394;10.892;2023-01-16T04:47:13;0.00;99.90
66094;DHT22;52876;49.394;10.892;2023-01-16T04:49:39;0.00;99.90
66094;DHT22;52876;49.394;10.892;2023-01-16T04:52:06;-0.10;99.90
66094;DHT22;52876;49.394;10.892;2023-01-16T04:54:33;-0.10;99.90
66094;DHT22;52876;49.394;10.892;2023-01-16T04:57:00;-0.10;99.90
66094;DHT22;52876;49.394;10.892;2023-01-16T04:59:26;-0.10;99.90
66094;DHT22;52876;49.394;10.892;2023-01-16T05:01:53;-0.10;99.90
66094;DHT22;52876;49.394;10.892;2023-01-16T05:04:19;-0.10;99.90
66094;DHT22;52876;49.394;10.892;2023-01-16T05:06:45;-0.10;99.90
66094;DHT22;52876;49.394;10.892;2023-01-16T05:09:11;-0.10;99.90
66094;DHT22;52876;49.394;10.892;2023-01-16T05:11:38;-0.10;99.90
66094;DHT22;52876;49.394;10.892;2023-01-16T05:14:04;-0.10;99.90
66094;DHT22;52876;49.394;10.892;2023-01-16T05:16:31;-0.10;99.90
66094;DHT22;52876;49.394;10.892;2023-01-16T05:18:57;-0.10;99.90
66094;DHT22;52876;49.394;10.892;2023-01-16T05:21:24;-0.10;99.90
66094;DHT22;52876;49.394;10.892;2023-01-16T05:23:50;-0.10;99.90
66094;DHT22;52876;49.394;10.892;2023-01-16T05:26:15;-0.10;99.90
66094;DHT22;52876;49.394;10.892;2023-01-16T05:28:43;0.70;99.90
66094;DHT22;52876;49.394;10.892;2023-01-16T05:31:08;-0.10;99.90
66094;DHT22;52876;49.394;10.892;2023-01-16T05:33:34;-0.20;99.90
66094;DHT22;52876;49.394;10.892;2023-01-16T05:36:01;-0.20;99.90
66094;DHT22;52876;49.394;10.892;2023-01-16T05:38:27;-0.10;99.90
66094;DHT22;52876;49.394;10.892;2023-01-16T05:40:54;-0.20;99.90
66094;DHT22;52876;49.394;10.892;2023-01-16T05:43:20;-0.20;99.90
66094;DHT22;52876;49.394;10.892;2023-01-16T05:45:48;-0.20;99.90
66094;DHT22;52876;49.394;10.892;2023-01-16T05:48:13;-0.20;99.90
66094;DHT22;52876;49.394;10.892;2023-01-16T05:50:39;-0.20;99.90
66094;DHT22;52876;49.394;10.892;2023-01-16T05:53:05;-0.10;99.90
66094;DHT22;52876;49.394;10.892;2023-01-16T05:55:36;-0.10;99.90
66094;DHT22;52876;49.394;10.892;2023-01-16T05:58:04;-0.10;99.90
66094;DHT22;52876;49.394;10.892;2023-01-16T06:00:31;-0.10;99.90
66094;DHT22;52876;49.394;10.892;2023-01-16T06:02:58;0.00;99.90
66094;DHT22;52876;49.394;10.892;2023-01-16T06:05:24;-0.10;99.90
66094;DHT22;52876;49.394;10.892;2023-01-16T06:07:53;-0.10;99.90
66094;DHT22;52876;49.394;10.892;2023-01-16T06:10:19;0.00;99.90
66094;DHT22;52876;49.394;10.892;2023-01-16T06:12:46;-0.10;99.90
66094;DHT22;52876;49.394;10.892;2023-01-16T06:15:12;0.00;99.90
66094;DHT22;52876;49.394;10.892;2023-01-16T06:17:39;0.00;99.90
66094;DHT22;52876;49.394;10.892;2023-01-16T06:20:08;-0.10;99.90
66094;DHT22;52876;49.394;10.892;2023-01-16T06:22:35;0.00;99.90
66094;DHT22;52876;49.394;10.892;2023-01-16T06:25:01;-0.10;99.90
66094;DHT22;52876;49.394;10.892;2023-01-16T06:27:28;-0.10;99.90
66094;DHT22;52876;49.394;10.892;2023-01-16T06:29:54;-0.80;99.90
66094;DHT22;52876;49.394;10.892;2023-01-16T06:32:20;-0.10;99.90
66094;DHT22;52876;49.394;10.892;2023-01-16T06:34:46;-0.10;99.90
66094;DHT22;52876;49.394;10.892;2023-01-16T06:37:13;-0.10;99.90
66094;DHT22;52876;49.394;10.892;2023-01-16T06:39:39;0.00;99.90
66094;DHT22;52876;49.394;10.892;2023-01-16T06:42:04;0.00;99.90
66094;DHT22;52876;49.394;10.892;2023-01-16T06:44:30;0.10;99.90
66094;DHT22;52876;49.394;10.892;2023-01-16T06:46:56;0.10;99.90
66094;DHT22;52876;49.394;10.892;2023-01-16T06:49:22;0.10;99.90
66094;DHT22;52876;49.394;10.892;2023-01-16T06:51:49;0.10;99.90
66094;DHT22;52876;49.394;10.892;2023-01-16T06:54:16;0.10;99.90
66094;DHT22;52876;49.394;10.892;2023-01-16T06:56:43;0.10;99.90
66094;DHT22;52876;49.394;10.892;2023-01-16T06:59:09;0.20;99.90
66094;DHT22;52876;49.394;10.892;2023-01-16T07:01:36;0.20;99.90
66094;DHT22;52876;49.394;10.892;2023-01-16T07:04:01;0.20;99.90
66094;DHT22;52876;49.394;10.892;2023-01-16T07:06:29;0.20;99.90
66094;DHT22;52876;49.394;10.892;2023-01-16T07:08:54;0.20;99.90
66094;DHT22;52876;49.394;10.892;2023-01-16T07:11:23;0.30;99.90
66094;DHT22;52876;49.394;10.892;2023-01-16T07:13:49;0.30;99.90
66094;DHT22;52876;49.394;10.892;2023-01-16T07:16:17;0.40;99.90
66094;DHT22;52876;49.394;10.892;2023-01-16T07:18:43;0.40;99.90
66094;DHT22;52876;49.394;10.892;2023-01-16T07:21:13;1.70;99.90
66094;DHT22;52876;49.394;10.892;2023-01-16T07:23:41;0.50;99.90
66094;DHT22;52876;49.394;10.892;2023-01-16T07:26:09;0.50;99.90
66094;DHT22;52876;49.394;10.892;2023-01-16T07:28:38;0.60;99.90
66094;DHT22;52876;49.394;10.892;2023-01-16T07:31:06;0.70;99.90
66094;DHT22;52876;49.394;10.892;2023-01-16T07:33:33;0.70;99.90
66094;DHT22;52876;49.394;10.892;2023-01-16T07:36:00;0.80;99.90
66094;DHT22;52876;49.394;10.892;2023-01-16T07:38:25;0.80;99.90
66094;DHT22;52876;49.394;10.892;2023-01-16T07:40:51;2.20;99.90
66094;DHT22;52876;49.394;10.892;2023-01-16T07:43:17;0.90;99.90
66094;DHT22;52876;49.394;10.892;2023-01-16T07:45:45;1.00;99.90
66094;DHT22;52876;49.394;10.892;2023-01-16T07:48:11;1.00;99.90
66094;DHT22;52876;49.394;10.892;2023-01-16T07:50:37;1.20;99.90
66094;DHT22;52876;49.394;10.892;2023-01-16T07:53:02;1.40;99.90
66094;DHT22;52876;49.394;10.892;2023-01-16T07:55:29;1.50;99.90
66094;DHT22;52876;49.394;10.892;2023-01-16T07:57:55;1.70;99.90
66094;DHT22;52876;49.394;10.892;2023-01-16T08:02:50;2.00;99.90
66094;DHT22;52876;49.394;10.892;2023-01-16T08:07:43;2.30;99.90
66094;DHT22;52876;49.394;10.892;2023-01-16T08:10:10;2.40;99.90
66094;DHT22;52876;49.394;10.892;2023-01-16T08:12:38;2.40;99.90
66094;DHT22;52876;49.394;10.892;2023-01-16T08:15:04;2.50;99.90
66094;DHT22;52876;49.394;10.892;2023-01-16T08:17:31;2.50;99.90
66094;DHT22;52876;49.394;10.892;2023-01-16T08:19:58;2.50;99.90
66094;DHT22;52876;49.394;10.892;2023-01-16T08:22:24;2.50;99.90
66094;DHT22;52876;49.394;10.892;2023-01-16T08:24:49;2.50;99.90
66094;DHT22;52876;49.394;10.892;2023-01-16T08:27:17;2.40;99.90
66094;DHT22;52876;49.394;10.892;2023-01-16T08:29:42;2.40;99.90
66094;DHT22;52876;49.394;10.892;2023-01-16T08:32:08;2.40;99.90
66094;DHT22;52876;49.394;10.892;2023-01-16T08:34:34;2.40;99.90
66094;DHT22;52876;49.394;10.892;2023-01-16T08:37:02;2.50;99.90
66094;DHT22;52876;49.394;10.892;2023-01-16T08:39:28;2.60;99.90
66094;DHT22;52876;49.394;10.892;2023-01-16T08:41:54;2.70;99.90
66094;DHT22;52876;49.394;10.892;2023-01-16T08:44:19;2.90;99.90
66094;DHT22;52876;49.394;10.892;2023-01-16T08:46:52;3.00;99.90
66094;DHT22;52876;49.394;10.892;2023-01-16T08:49:18;3.10;99.90
66094;DHT22;52876;49.394;10.892;2023-01-16T08:51:44;3.20;99.90
66094;DHT22;52876;49.394;10.892;2023-01-16T08:54:11;3.20;99.90
66094;DHT22;52876;49.394;10.892;2023-01-16T08:56:37;3.30;99.90
66094;DHT22;52876;49.394;10.892;2023-01-16T09:01:30;3.70;99.90
66094;DHT22;52876;49.394;10.892;2023-01-16T09:03:56;3.70;99.90
66094;DHT22;52876;49.394;10.892;2023-01-16T09:06:23;3.70;99.90
66094;DHT22;52876;49.394;10.892;2023-01-16T09:08:49;4.00;99.90
66094;DHT22;52876;49.394;10.892;2023-01-16T09:11:18;4.00;99.90
66094;DHT22;52876;49.394;10.892;2023-01-16T09:13:44;4.20;99.90
66094;DHT22;52876;49.394;10.892;2023-01-16T09:16:10;4.30;99.90
66094;DHT22;52876;49.394;10.892;2023-01-16T09:18:36;4.10;99.90
66094;DHT22;52876;49.394;10.892;2023-01-16T09:21:02;4.00;99.90
66094;DHT22;52876;49.394;10.892;2023-01-16T09:23:28;4.10;99.90
66094;DHT22;52876;49.394;10.892;2023-01-16T09:25:54;4.10;99.90
66094;DHT22;52876;49.394;10.892;2023-01-16T09:28:21;4.20;99.90
66094;DHT22;52876;49.394;10.892;2023-01-16T09:30:50;4.40;99.90
66094;DHT22;52876;49.394;10.892;2023-01-16T09:33:16;4.50;99.90
66094;DHT22;52876;49.394;10.892;2023-01-16T09:35:42;4.70;99.90
66094;DHT22;52876;49.394;10.892;2023-01-16T09:38:08;4.70;99.90
66094;DHT22;52876;49.394;10.892;2023-01-16T09:40:36;4.80;99.90
66094;DHT22;52876;49.394;10.892;2023-01-16T09:43:12;4.90;99.90
66094;DHT22;52876;49.394;10.892;2023-01-16T09:45:44;5.00;99.90
66094;DHT22;52876;49.394;10.892;2023-01-16T09:48:13;5.20;99.90
66094;DHT22;52876;49.394;10.892;2023-01-16T09:50:43;5.20;99.90
66094;DHT22;52876;49.394;10.892;2023-01-16T09:53:15;5.20;99.90
66094;DHT22;52876;49.394;10.892;2023-01-16T09:55:45;5.20;99.90
66094;DHT22;52876;49.394;10.892;2023-01-16T09:58:13;5.20;99.90
66094;DHT22;52876;49.394;10.892;2023-01-16T10:00:43;5.10;99.90
66094;DHT22;52876;49.394;10.892;2023-01-16T10:03:09;5.10;99.90
66094;DHT22;52876;49.394;10.892;2023-01-16T10:05:40;5.10;99.90
66094;DHT22;52876;49.394;10.892;2023-01-16T10:08:10;5.20;99.90
66094;DHT22;52876;49.394;10.892;2023-01-16T10:10:44;5.10;99.90
66094;DHT22;52876;49.394;10.892;2023-01-16T10:16:09;5.00;99.90
66094;DHT22;52876;49.394;10.892;2023-01-16T10:18:43;5.00;99.90
66094;DHT22;52876;49.394;10.892;2023-01-16T10:24:13;5.30;99.90
66094;DHT22;52876;49.394;10.892;2023-01-16T10:26:56;5.20;99.90
66094;DHT22;52876;49.394;10.892;2023-01-16T10:29:24;5.20;99.90
66094;DHT22;52876;49.394;10.892;2023-01-16T10:31:58;5.20;99.90
66094;DHT22;52876;49.394;10.892;2023-01-16T10:34:28;5.20;99.90
66094;DHT22;52876;49.394;10.892;2023-01-16T10:36:58;5.20;99.90
66094;DHT22;52876;49.394;10.892;2023-01-16T10:39:31;5.30;99.90
66094;DHT22;52876;49.394;10.892;2023-01-16T10:42:07;5.50;99.90
66094;DHT22;52876;49.394;10.892;2023-01-16T10:44:35;5.60;99.90
66094;DHT22;52876;49.394;10.892;2023-01-16T10:47:09;5.80;99.90
66094;DHT22;52876;49.394;10.892;2023-01-16T10:49:35;5.90;99.90
66094;DHT22;52876;49.394;10.892;2023-01-16T10:52:04;6.00;99.90
66094;DHT22;52876;49.394;10.892;2023-01-16T10:54:31;6.00;99.90
66094;DHT22;52876;49.394;10.892;2023-01-16T10:56:58;6.10;99.90
66094;DHT22;52876;49.394;10.892;2023-01-16T10:59:25;6.10;99.90
66094;DHT22;52876;49.394;10.892;2023-01-16T11:01:56;6.10;99.90
66094;DHT22;52876;49.394;10.892;2023-01-16T11:04:33;6.20;99.90
66094;DHT22;52876;49.394;10.892;2023-01-16T11:07:15;6.10;99.90
66094;DHT22;52876;49.394;10.892;2023-01-16T11:09:43;5.90;99.90
66094;DHT22;52876;49.394;10.892;2023-01-16T11:12:17;5.80;99.90
66094;DHT22;52876;49.394;10.892;2023-01-16T11:14:44;5.60;99.90
66094;DHT22;52876;49.394;10.892;2023-01-16T11:17:22;5.60;99.90
66094;DHT22;52876;49.394;10.892;2023-01-16T11:19:50;5.80;99.90
66094;DHT22;52876;49.394;10.892;2023-01-16T11:22:22;5.90;99.90
66094;DHT22;52876;49.394;10.892;2023-01-16T11:24:48;5.90;99.90
66094;DHT22;52876;49.394;10.892;2023-01-16T11:27:20;5.90;99.90
66094;DHT22;52876;49.394;10.892;2023-01-16T11:29:52;5.80;99.90
66094;DHT22;52876;49.394;10.892;2023-01-16T11:32:19;5.90;99.90
66094;DHT22;52876;49.394;10.892;2023-01-16T11:34:46;6.00;99.90
66094;DHT22;52876;49.394;10.892;2023-01-16T11:37:16;5.90;99.90
66094;DHT22;52876;49.394;10.892;2023-01-16T11:39:47;5.60;99.90
66094;DHT22;52876;49.394;10.892;2023-01-16T11:42:15;5.50;99.90
66094;DHT22;52876;49.394;10.892;2023-01-16T11:44:41;5.50;99.90
66094;DHT22;52876;49.394;10.892;2023-01-16T11:47:12;5.40;99.90
66094;DHT22;52876;49.394;10.892;2023-01-16T11:49:40;5.20;99.90
66094;DHT22;52876;49.394;10.892;2023-01-16T11:52:12;5.10;99.90
66094;DHT22;52876;49.394;10.892;2023-01-16T11:54:40;5.00;99.90
66094;DHT22;52876;49.394;10.892;2023-01-16T11:57:26;5.00;99.90
66094;DHT22;52876;49.394;10.892;2023-01-16T12:06:26;4.90;99.90
66094;DHT22;52876;49.394;10.892;2023-01-16T12:09:12;4.90;99.90
66094;DHT22;52876;49.394;10.892;2023-01-16T12:11:55;4.80;99.90
66094;DHT22;52876;49.394;10.892;2023-01-16T12:14:28;4.90;99.90
66094;DHT22;52876;49.394;10.892;2023-01-16T12:17:09;5.00;99.90
66094;DHT22;52876;49.394;10.892;2023-01-16T12:20:01;5.20;99.90
66094;DHT22;52876;49.394;10.892;2023-01-16T12:22:45;5.20;99.90
66094;DHT22;52876;49.394;10.892;2023-01-16T12:25:24;5.30;99.90
66094;DHT22;52876;49.394;10.892;2023-01-16T12:28:00;5.20;99.90
66094;DHT22;52876;49.394;10.892;2023-01-16T12:30:37;5.40;99.90
66094;DHT22;52876;49.394;10.892;2023-01-16T12:33:12;5.40;99.90
66094;DHT22;52876;49.394;10.892;2023-01-16T12:35:49;5.40;99.90
66094;DHT22;52876;49.394;10.892;2023-01-16T12:38:26;5.30;99.90
66094;DHT22;52876;49.394;10.892;2023-01-16T12:41:14;5.30;99.90
66094;DHT22;52876;49.394;10.892;2023-01-16T12:43:51;5.30;99.90
66094;DHT22;52876;49.394;10.892;2023-01-16T12:46:27;5.40;99.90
66094;DHT22;52876;49.394;10.892;2023-01-16T12:49:15;5.40;99.90
66094;DHT22;52876;49.394;10.892;2023-01-16T12:51:52;5.40;99.90
66094;DHT22;52876;49.394;10.892;2023-01-16T12:54:33;5.40;99.90
66094;DHT22;52876;49.394;10.892;2023-01-16T12:57:14;5.30;99.90
66094;DHT22;52876;49.394;10.892;2023-01-16T12:59:48;5.30;99.90
66094;DHT22;52876;49.394;10.892;2023-01-16T13:02:20;5.30;99.90
66094;DHT22;52876;49.394;10.892;2023-01-16T13:04:53;5.40;99.90
66094;DHT22;52876;49.394;10.892;2023-01-16T13:07:22;5.50;99.90
66094;DHT22;52876;49.394;10.892;2023-01-16T13:09:52;5.50;99.90
66094;DHT22;52876;49.394;10.892;2023-01-16T13:12:24;5.50;99.90
66094;DHT22;52876;49.394;10.892;2023-01-16T13:14:58;5.40;99.90
66094;DHT22;52876;49.394;10.892;2023-01-16T13:17:39;5.40;99.90
66094;DHT22;52876;49.394;10.892;2023-01-16T13:20:10;5.30;99.90
66094;DHT22;52876;49.394;10.892;2023-01-16T13:22:43;5.30;99.90
66094;DHT22;52876;49.394;10.892;2023-01-16T13:25:17;5.30;99.90
66094;DHT22;52876;49.394;10.892;2023-01-16T13:27:52;5.30;99.90
66094;DHT22;52876;49.394;10.892;2023-01-16T13:30:21;5.10;99.90
66094;DHT22;52876;49.394;10.892;2023-01-16T13:32:52;5.20;99.90
66094;DHT22;52876;49.394;10.892;2023-01-16T13:35:22;5.60;99.90
66094;DHT22;52876;49.394;10.892;2023-01-16T13:38:10;5.00;99.90
66094;DHT22;52876;49.394;10.892;2023-01-16T13:41:12;5.00;99.90
66094;DHT22;52876;49.394;10.892;2023-01-16T13:43:42;4.90;99.90
66094;DHT22;52876;49.394;10.892;2023-01-16T13:46:10;4.90;99.90
66094;DHT22;52876;49.394;10.892;2023-01-16T13:48:36;4.90;99.90
66094;DHT22;52876;49.394;10.892;2023-01-16T13:51:11;4.80;99.90
66094;DHT22;52876;49.394;10.892;2023-01-16T13:53:37;4.90;99.90
66094;DHT22;52876;49.394;10.892;2023-01-16T13:56:06;4.80;99.90
66094;DHT22;52876;49.394;10.892;2023-01-16T13:58:37;4.90;99.90
66094;DHT22;52876;49.394;10.892;2023-01-16T14:01:04;6.10;99.90
66094;DHT22;52876;49.394;10.892;2023-01-16T14:03:33;4.90;99.90
66094;DHT22;52876;49.394;10.892;2023-01-16T14:06:20;4.60;99.90
66094;DHT22;52876;49.394;10.892;2023-01-16T14:08:51;4.80;99.90
66094;DHT22;52876;49.394;10.892;2023-01-16T14:11:28;4.80;99.90
66094;DHT22;52876;49.394;10.892;2023-01-16T14:14:32;4.90;99.90
66094;DHT22;52876;49.394;10.892;2023-01-16T14:17:01;4.90;99.90
66094;DHT22;52876;49.394;10.892;2023-01-16T14:19:36;5.00;99.90
66094;DHT22;52876;49.394;10.892;2023-01-16T14:22:04;5.10;99.90
66094;DHT22;52876;49.394;10.892;2023-01-16T14:24:37;5.10;99.90
66094;DHT22;52876;49.394;10.892;2023-01-16T14:27:03;5.00;99.90
66094;DHT22;52876;49.394;10.892;2023-01-16T14:29:31;4.90;99.90
66094;DHT22;52876;49.394;10.892;2023-01-16T14:32:01;4.70;99.90
66094;DHT22;52876;49.394;10.892;2023-01-16T14:34:33;4.70;99.90
66094;DHT22;52876;49.394;10.892;2023-01-16T14:37:03;4.70;99.90
66094;DHT22;52876;49.394;10.892;2023-01-16T14:39:33;4.60;99.90
66094;DHT22;52876;49.394;10.892;2023-01-16T14:42:07;4.70;99.90
66094;DHT22;52876;49.394;10.892;2023-01-16T14:45:09;4.60;99.90
66094;DHT22;52876;49.394;10.892;2023-01-16T14:47:45;4.60;99.90
66094;DHT22;52876;49.394;10.892;2023-01-16T14:50:13;4.70;99.90
66094;DHT22;52876;49.394;10.892;2023-01-16T14:52:50;4.70;99.90
66094;DHT22;52876;49.394;10.892;2023-01-16T14:57:45;4.80;99.90
66094;DHT22;52876;49.394;10.892;2023-01-16T15:00:15;5.00;99.90
66094;DHT22;52876;49.394;10.892;2023-01-16T15:02:49;5.00;99.90
66094;DHT22;52876;49.394;10.892;2023-01-16T15:05:20;5.00;99.90
66094;DHT22;52876;49.394;10.892;2023-01-16T15:07:50;5.00;99.90
66094;DHT22;52876;49.394;10.892;2023-01-16T15:10:19;5.00;99.90
66094;DHT22;52876;49.394;10.892;2023-01-16T15:12:47;5.10;99.90
66094;DHT22;52876;49.394;10.892;2023-01-16T15:15:21;5.00;99.90
66094;DHT22;52876;49.394;10.892;2023-01-16T15:17:50;5.00;99.90
66094;DHT22;52876;49.394;10.892;2023-01-16T15:20:21;4.80;99.90
66094;DHT22;52876;49.394;10.892;2023-01-16T15:22:51;4.80;99.90
66094;DHT22;52876;49.394;10.892;2023-01-16T15:25:27;4.60;99.90
66094;DHT22;52876;49.394;10.892;2023-01-16T15:28:01;4.50;99.90
66094;DHT22;52876;49.394;10.892;2023-01-16T15:30:30;4.20;99.90
66094;DHT22;52876;49.394;10.892;2023-01-16T15:32:58;4.20;99.90
66094;DHT22;52876;49.394;10.892;2023-01-16T15:35:25;4.10;99.90
66094;DHT22;52876;49.394;10.892;2023-01-16T15:37:53;4.10;99.90
66094;DHT22;52876;49.394;10.892;2023-01-16T15:40:22;4.10;99.90
66094;DHT22;52876;49.394;10.892;2023-01-16T15:42:48;4.10;99.90
66094;DHT22;52876;49.394;10.892;2023-01-16T15:45:17;4.10;99.90
66094;DHT22;52876;49.394;10.892;2023-01-16T15:48:08;4.20;99.90
66094;DHT22;52876;49.394;10.892;2023-01-16T15:50:48;4.30;99.90
66094;DHT22;52876;49.394;10.892;2023-01-16T15:53:17;4.30;99.90
66094;DHT22;52876;49.394;10.892;2023-01-16T15:55:47;4.40;99.90
66094;DHT22;52876;49.394;10.892;2023-01-16T15:58:15;4.40;99.90
66094;DHT22;52876;49.394;10.892;2023-01-16T16:00:43;4.40;99.90
66094;DHT22;52876;49.394;10.892;2023-01-16T16:03:14;4.40;99.90
66094;DHT22;52876;49.394;10.892;2023-01-16T16:05:46;4.40;99.90
66094;DHT22;52876;49.394;10.892;2023-01-16T16:08:15;4.40;99.90
66094;DHT22;52876;49.394;10.892;2023-01-16T16:10:43;3.30;99.90
66094;DHT22;52876;49.394;10.892;2023-01-16T16:13:14;4.40;99.90